sensor_id;sensor_type;location;lat;lon;timestamp;P1;durP1;ratioP1;P2;durP2;ratioP2
17441;SDS011;8838;50.144;8.176;2024-01-30T00:00:52;18.83;;;13.90;;
17441;SDS011;8838;50.144;8.176;2024-01-30T00:03:18;23.77;;;14.10;;
17441;SDS011;8838;50.144;8.176;2024-01-30T00:05:45;23.13;;;14.40;;
17441;SDS011;8838;50.144;8.176;2024-01-30T00:08:14;23.57;;;14.60;;
17441;SDS011;8838;50.144;8.176;2024-01-30T00:10:40;20.47;;;13.90;;
17441;SDS011;8838;50.144;8.176;2024-01-30T00:13:07;22.57;;;14.17;;
17441;SDS011;8838;50.144;8.176;2024-01-30T00:15:34;22.73;;;13.67;;
17441;SDS011;8838;50.144;8.176;2024-01-30T00:18:02;21.33;;;13.83;;
17441;SDS011;8838;50.144;8.176;2024-01-30T00:20:29;20.50;;;12.90;;
17441;SDS011;8838;50.144;8.176;2024-01-30T00:22:56;23.17;;;13.50;;
17441;SDS011;8838;50.144;8.176;2024-01-30T00:25:24;19.63;;;12.50;;
17441;SDS011;8838;50.144;8.176;2024-01-30T00:27:51;18.77;;;12.60;;
17441;SDS011;8838;50.144;8.176;2024-01-30T00:30:18;18.00;;;12.60;;
17441;SDS011;8838;50.144;8.176;2024-01-30T00:32:46;20.83;;;13.50;;
17441;SDS011;8838;50.144;8.176;2024-01-30T00:35:13;22.30;;;13.53;;
17441;SDS011;8838;50.144;8.176;2024-01-30T00:37:40;19.23;;;12.97;;
17441;SDS011;8838;50.144;8.176;2024-01-30T00:40:07;24.90;;;14.03;;
17441;SDS011;8838;50.144;8.176;2024-01-30T00:42:42;21.97;;;13.60;;
17441;SDS011;8838;50.144;8.176;2024-01-30T00:45:11;24.00;;;13.87;;
17441;SDS011;8838;50.144;8.176;2024-01-30T00:47:39;23.50;;;13.77;;
17441;SDS011;8838;50.144;8.176;2024-01-30T00:50:06;18.70;;;13.80;;
17441;SDS011;8838;50.144;8.176;2024-01-30T00:52:34;23.90;;;13.43;;
17441;SDS011;8838;50.144;8.176;2024-01-30T00:55:00;20.17;;;14.40;;
17441;SDS011;8838;50.144;8.176;2024-01-30T00:57:28;22.03;;;14.00;;
17441;SDS011;8838;50.144;8.176;2024-01-30T00:59:56;23.27;;;14.30;;
17441;SDS011;8838;50.144;8.176;2024-01-30T01:02:23;20.10;;;14.10;;
17441;SDS011;8838;50.144;8.176;2024-01-30T01:04:52;21.77;;;12.87;;
17441;SDS011;8838;50.144;8.176;2024-01-30T01:07:19;20.13;;;13.63;;
17441;SDS011;8838;50.144;8.176;2024-01-30T01:09:46;22.50;;;14.27;;
17441;SDS011;8838;50.144;8.176;2024-01-30T01:12:12;21.80;;;13.73;;
17441;SDS011;8838;50.144;8.176;2024-01-30T01:14:39;21.20;;;13.37;;
17441;SDS011;8838;50.144;8.176;2024-01-30T01:17:08;18.97;;;12.77;;
17441;SDS011;8838;50.144;8.176;2024-01-30T01:19:35;20.90;;;13.40;;
17441;SDS011;8838;50.144;8.176;2024-01-30T01:22:02;25.83;;;13.93;;
17441;SDS011;8838;50.144;8.176;2024-01-30T01:24:30;22.70;;;13.83;;
17441;SDS011;8838;50.144;8.176;2024-01-30T01:26:57;19.63;;;12.50;;
17441;SDS011;8838;50.144;8.176;2024-01-30T01:29:24;20.17;;;13.47;;
17441;SDS011;8838;50.144;8.176;2024-01-30T01:31:54;19.33;;;12.67;;
17441;SDS011;8838;50.144;8.176;2024-01-30T01:34:23;19.73;;;12.53;;
17441;SDS011;8838;50.144;8.176;2024-01-30T01:36:50;18.00;;;12.63;;
17441;SDS011;8838;50.144;8.176;2024-01-30T01:39:20;21.33;;;12.63;;
17441;SDS011;8838;50.144;8.176;2024-01-30T01:41:48;17.80;;;12.30;;
17441;SDS011;8838;50.144;8.176;2024-01-30T01:44:15;18.00;;;11.83;;
17441;SDS011;8838;50.144;8.176;2024-01-30T01:46:42;18.27;;;11.97;;
17441;SDS011;8838;50.144;8.176;2024-01-30T01:49:09;20.30;;;12.33;;
17441;SDS011;8838;50.144;8.176;2024-01-30T01:51:37;19.93;;;11.63;;
17441;SDS011;8838;50.144;8.176;2024-01-30T01:54:06;16.53;;;11.80;;
17441;SDS011;8838;50.144;8.176;2024-01-30T01:56:35;19.57;;;11.97;;
17441;SDS011;8838;50.144;8.176;2024-01-30T01:59:04;18.27;;;11.33;;
17441;SDS011;8838;50.144;8.176;2024-01-30T02:01:33;18.50;;;10.90;;
17441;SDS011;8838;50.144;8.176;2024-01-30T02:04:02;17.77;;;10.57;;
17441;SDS011;8838;50.144;8.176;2024-01-30T02:06:29;15.20;;;10.77;;
17441;SDS011;8838;50.144;8.176;2024-01-30T02:08:58;16.23;;;11.47;;
17441;SDS011;8838;50.144;8.176;2024-01-30T02:11:25;19.77;;;12.27;;
17441;SDS011;8838;50.144;8.176;2024-01-30T02:13:52;18.33;;;11.60;;
17441;SDS011;8838;50.144;8.176;2024-01-30T02:16:20;17.63;;;11.17;;
17441;SDS011;8838;50.144;8.176;2024-01-30T02:18:47;18.60;;;11.57;;
17441;SDS011;8838;50.144;8.176;2024-01-30T02:21:15;19.20;;;12.23;;
17441;SDS011;8838;50.144;8.176;2024-01-30T02:23:43;20.83;;;11.33;;
17441;SDS011;8838;50.144;8.176;2024-01-30T02:26:10;20.00;;;11.40;;
17441;SDS011;8838;50.144;8.176;2024-01-30T02:28:38;20.47;;;11.67;;
17441;SDS011;8838;50.144;8.176;2024-01-30T02:31:05;16.63;;;10.17;;
17441;SDS011;8838;50.144;8.176;2024-01-30T02:33:33;18.93;;;10.77;;
17441;SDS011;8838;50.144;8.176;2024-01-30T02:36:00;17.83;;;11.20;;
17441;SDS011;8838;50.144;8.176;2024-01-30T02:38:29;16.80;;;10.83;;
17441;SDS011;8838;50.144;8.176;2024-01-30T02:40:55;16.70;;;10.30;;
17441;SDS011;8838;50.144;8.176;2024-01-30T02:43:23;16.67;;;11.20;;
17441;SDS011;8838;50.144;8.176;2024-01-30T02:45:50;15.67;;;10.77;;
17441;SDS011;8838;50.144;8.176;2024-01-30T02:48:17;17.87;;;11.53;;
17441;SDS011;8838;50.144;8.176;2024-01-30T02:50:44;15.10;;;10.63;;
17441;SDS011;8838;50.144;8.176;2024-01-30T02:53:12;19.03;;;11.00;;
17441;SDS011;8838;50.144;8.176;2024-01-30T02:55:40;19.17;;;10.93;;
17441;SDS011;8838;50.144;8.176;2024-01-30T02:58:07;16.83;;;11.27;;
17441;SDS011;8838;50.144;8.176;2024-01-30T03:00:34;19.37;;;11.57;;
17441;SDS011;8838;50.144;8.176;2024-01-30T03:03:01;17.63;;;12.23;;
17441;SDS011;8838;50.144;8.176;2024-01-30T03:05:31;19.53;;;12.80;;
17441;SDS011;8838;50.144;8.176;2024-01-30T03:07:58;18.83;;;11.67;;
17441;SDS011;8838;50.144;8.176;2024-01-30T03:10:25;17.07;;;11.77;;
17441;SDS011;8838;50.144;8.176;2024-01-30T03:12:53;22.53;;;12.80;;
17441;SDS011;8838;50.144;8.176;2024-01-30T03:15:20;19.23;;;12.23;;
17441;SDS011;8838;50.144;8.176;2024-01-30T03:17:48;22.57;;;12.80;;
17441;SDS011;8838;50.144;8.176;2024-01-30T03:20:14;18.70;;;12.47;;
17441;SDS011;8838;50.144;8.176;2024-01-30T03:22:41;20.47;;;12.37;;
17441;SDS011;8838;50.144;8.176;2024-01-30T03:25:08;20.43;;;12.63;;
17441;SDS011;8838;50.144;8.176;2024-01-30T03:27:35;20.27;;;13.40;;
17441;SDS011;8838;50.144;8.176;2024-01-30T03:30:04;18.40;;;12.53;;
17441;SDS011;8838;50.144;8.176;2024-01-30T03:32:32;19.03;;;12.80;;
17441;SDS011;8838;50.144;8.176;2024-01-30T03:34:59;21.03;;;12.87;;
17441;SDS011;8838;50.144;8.176;2024-01-30T03:37:26;22.90;;;12.60;;
17441;SDS011;8838;50.144;8.176;2024-01-30T03:39:53;21.03;;;13.43;;
17441;SDS011;8838;50.144;8.176;2024-01-30T03:42:20;21.57;;;13.67;;
17441;SDS011;8838;50.144;8.176;2024-01-30T03:44:48;24.10;;;13.73;;
17441;SDS011;8838;50.144;8.176;2024-01-30T03:47:20;20.43;;;13.03;;
17441;SDS011;8838;50.144;8.176;2024-01-30T03:49:47;20.83;;;13.77;;
17441;SDS011;8838;50.144;8.176;2024-01-30T03:52:14;22.63;;;14.63;;
17441;SDS011;8838;50.144;8.176;2024-01-30T03:54:41;21.07;;;14.03;;
17441;SDS011;8838;50.144;8.176;2024-01-30T03:57:09;18.83;;;12.97;;
17441;SDS011;8838;50.144;8.176;2024-01-30T03:59:37;21.23;;;13.77;;
17441;SDS011;8838;50.144;8.176;2024-01-30T04:02:09;20.87;;;13.40;;
17441;SDS011;8838;50.144;8.176;2024-01-30T04:04:40;19.47;;;12.77;;
17441;SDS011;8838;50.144;8.176;2024-01-30T04:07:07;20.80;;;12.73;;
17441;SDS011;8838;50.144;8.176;2024-01-30T04:09:33;20.63;;;13.07;;
17441;SDS011;8838;50.144;8.176;2024-01-30T04:12:01;21.67;;;13.13;;
17441;SDS011;8838;50.144;8.176;2024-01-30T04:14:28;21.40;;;13.07;;
17441;SDS011;8838;50.144;8.176;2024-01-30T04:16:56;22.57;;;12.60;;
17441;SDS011;8838;50.144;8.176;2024-01-30T04:19:23;19.53;;;12.60;;
17441;SDS011;8838;50.144;8.176;2024-01-30T04:21:53;21.83;;;12.37;;
17441;SDS011;8838;50.144;8.176;2024-01-30T04:24:20;20.40;;;11.33;;
17441;SDS011;8838;50.144;8.176;2024-01-30T04:26:47;17.60;;;11.50;;
17441;SDS011;8838;50.144;8.176;2024-01-30T04:29:13;18.20;;;11.93;;
17441;SDS011;8838;50.144;8.176;2024-01-30T04:31:40;17.37;;;11.50;;
17441;SDS011;8838;50.144;8.176;2024-01-30T04:34:07;19.23;;;11.83;;
17441;SDS011;8838;50.144;8.176;2024-01-30T04:36:34;20.23;;;11.70;;
17441;SDS011;8838;50.144;8.176;2024-01-30T04:39:02;20.37;;;12.30;;
17441;SDS011;8838;50.144;8.176;2024-01-30T04:41:29;20.40;;;12.20;;
17441;SDS011;8838;50.144;8.176;2024-01-30T04:43:57;17.93;;;12.10;;
17441;SDS011;8838;50.144;8.176;2024-01-30T04:46:26;20.73;;;12.20;;
17441;SDS011;8838;50.144;8.176;2024-01-30T04:48:53;18.87;;;11.43;;
17441;SDS011;8838;50.144;8.176;2024-01-30T04:51:20;18.37;;;11.90;;
17441;SDS011;8838;50.144;8.176;2024-01-30T04:53:47;20.10;;;12.13;;
17441;SDS011;8838;50.144;8.176;2024-01-30T04:56:17;18.43;;;12.13;;
17441;SDS011;8838;50.144;8.176;2024-01-30T04:58:44;20.47;;;12.20;;
17441;SDS011;8838;50.144;8.176;2024-01-30T05:01:14;20.43;;;12.93;;
17441;SDS011;8838;50.144;8.176;2024-01-30T05:03:41;20.60;;;12.40;;
17441;SDS011;8838;50.144;8.176;2024-01-30T05:06:11;19.73;;;12.53;;
17441;SDS011;8838;50.144;8.176;2024-01-30T05:08:38;20.60;;;12.87;;
17441;SDS011;8838;50.144;8.176;2024-01-30T05:11:05;21.63;;;13.30;;
17441;SDS011;8838;50.144;8.176;2024-01-30T05:13:34;24.07;;;13.67;;
17441;SDS011;8838;50.144;8.176;2024-01-30T05:16:01;21.33;;;13.70;;
17441;SDS011;8838;50.144;8.176;2024-01-30T05:18:29;25.07;;;13.87;;
17441;SDS011;8838;50.144;8.176;2024-01-30T05:20:56;25.43;;;13.93;;
17441;SDS011;8838;50.144;8.176;2024-01-30T05:23:24;19.60;;;13.80;;
17441;SDS011;8838;50.144;8.176;2024-01-30T05:25:51;20.97;;;13.70;;
17441;SDS011;8838;50.144;8.176;2024-01-30T05:28:18;23.77;;;13.87;;
17441;SDS011;8838;50.144;8.176;2024-01-30T05:30:47;21.60;;;13.87;;
17441;SDS011;8838;50.144;8.176;2024-01-30T05:33:14;22.07;;;14.00;;
17441;SDS011;8838;50.144;8.176;2024-01-30T05:35:41;26.87;;;15.17;;
17441;SDS011;8838;50.144;8.176;2024-01-30T05:38:08;24.93;;;14.83;;
17441;SDS011;8838;50.144;8.176;2024-01-30T05:40:35;22.07;;;14.20;;
17441;SDS011;8838;50.144;8.176;2024-01-30T05:43:02;24.10;;;14.47;;
17441;SDS011;8838;50.144;8.176;2024-01-30T05:45:29;23.67;;;14.47;;
17441;SDS011;8838;50.144;8.176;2024-01-30T05:47:58;23.87;;;14.60;;
17441;SDS011;8838;50.144;8.176;2024-01-30T05:50:24;26.27;;;14.40;;
17441;SDS011;8838;50.144;8.176;2024-01-30T05:52:52;24.30;;;15.07;;
17441;SDS011;8838;50.144;8.176;2024-01-30T05:55:19;24.03;;;15.60;;
17441;SDS011;8838;50.144;8.176;2024-01-30T05:57:45;29.17;;;15.77;;
17441;SDS011;8838;50.144;8.176;2024-01-30T06:00:12;23.63;;;15.77;;
17441;SDS011;8838;50.144;8.176;2024-01-30T06:02:41;23.57;;;14.63;;
17441;SDS011;8838;50.144;8.176;2024-01-30T06:05:10;25.83;;;15.63;;
17441;SDS011;8838;50.144;8.176;2024-01-30T06:07:38;24.80;;;15.77;;
17441;SDS011;8838;50.144;8.176;2024-01-30T06:10:06;28.03;;;15.77;;
17441;SDS011;8838;50.144;8.176;2024-01-30T06:12:35;22.27;;;16.17;;
17441;SDS011;8838;50.144;8.176;2024-01-30T06:15:03;24.20;;;15.90;;
17441;SDS011;8838;50.144;8.176;2024-01-30T06:17:31;26.90;;;15.93;;
17441;SDS011;8838;50.144;8.176;2024-01-30T06:20:00;25.17;;;16.23;;
17441;SDS011;8838;50.144;8.176;2024-01-30T06:22:30;25.37;;;16.90;;
17441;SDS011;8838;50.144;8.176;2024-01-30T06:24:58;25.50;;;16.87;;
17441;SDS011;8838;50.144;8.176;2024-01-30T06:27:25;30.80;;;17.83;;
17441;SDS011;8838;50.144;8.176;2024-01-30T06:29:52;27.97;;;17.57;;
17441;SDS011;8838;50.144;8.176;2024-01-30T06:32:19;28.10;;;17.57;;
17441;SDS011;8838;50.144;8.176;2024-01-30T06:34:48;26.27;;;16.50;;
17441;SDS011;8838;50.144;8.176;2024-01-30T06:37:16;29.63;;;17.93;;
17441;SDS011;8838;50.144;8.176;2024-01-30T06:39:45;29.17;;;18.33;;
17441;SDS011;8838;50.144;8.176;2024-01-30T06:42:13;29.80;;;18.10;;
17441;SDS011;8838;50.144;8.176;2024-01-30T06:44:40;30.17;;;18.33;;
17441;SDS011;8838;50.144;8.176;2024-01-30T06:47:07;31.33;;;19.60;;
17441;SDS011;8838;50.144;8.176;2024-01-30T06:49:34;30.30;;;18.57;;
17441;SDS011;8838;50.144;8.176;2024-01-30T06:52:03;28.27;;;19.00;;
17441;SDS011;8838;50.144;8.176;2024-01-30T06:54:31;31.30;;;20.30;;
17441;SDS011;8838;50.144;8.176;2024-01-30T06:57:10;29.43;;;18.77;;
17441;SDS011;8838;50.144;8.176;2024-01-30T06:59:39;31.03;;;19.30;;
17441;SDS011;8838;50.144;8.176;2024-01-30T07:02:09;27.00;;;17.53;;
17441;SDS011;8838;50.144;8.176;2024-01-30T07:04:37;27.70;;;17.70;;
17441;SDS011;8838;50.144;8.176;2024-01-30T07:07:06;26.47;;;16.37;;
17441;SDS011;8838;50.144;8.176;2024-01-30T07:09:37;30.07;;;17.27;;
17441;SDS011;8838;50.144;8.176;2024-01-30T07:12:06;26.80;;;15.70;;
17441;SDS011;8838;50.144;8.176;2024-01-30T07:14:35;26.37;;;16.33;;
17441;SDS011;8838;50.144;8.176;2024-01-30T07:17:03;25.77;;;16.67;;
17441;SDS011;8838;50.144;8.176;2024-01-30T07:19:30;26.33;;;16.87;;
17441;SDS011;8838;50.144;8.176;2024-01-30T07:21:56;28.33;;;17.17;;
17441;SDS011;8838;50.144;8.176;2024-01-30T07:24:23;24.07;;;15.50;;
17441;SDS011;8838;50.144;8.176;2024-01-30T07:26:50;26.33;;;15.70;;
17441;SDS011;8838;50.144;8.176;2024-01-30T07:29:17;23.70;;;15.00;;
17441;SDS011;8838;50.144;8.176;2024-01-30T07:31:46;21.13;;;14.50;;
17441;SDS011;8838;50.144;8.176;2024-01-30T07:34:12;22.37;;;14.37;;
17441;SDS011;8838;50.144;8.176;2024-01-30T07:36:39;22.70;;;13.23;;
17441;SDS011;8838;50.144;8.176;2024-01-30T07:39:07;22.63;;;14.07;;
17441;SDS011;8838;50.144;8.176;2024-01-30T07:41:35;20.67;;;13.80;;
17441;SDS011;8838;50.144;8.176;2024-01-30T07:44:02;20.63;;;13.50;;
17441;SDS011;8838;50.144;8.176;2024-01-30T07:46:30;21.17;;;13.40;;
17441;SDS011;8838;50.144;8.176;2024-01-30T07:48:59;21.37;;;13.17;;
17441;SDS011;8838;50.144;8.176;2024-01-30T07:51:26;22.10;;;13.00;;
17441;SDS011;8838;50.144;8.176;2024-01-30T07:53:56;21.03;;;12.80;;
17441;SDS011;8838;50.144;8.176;2024-01-30T07:56:23;19.20;;;12.43;;
17441;SDS011;8838;50.144;8.176;2024-01-30T07:58:50;21.33;;;11.90;;
17441;SDS011;8838;50.144;8.176;2024-01-30T08:01:17;17.30;;;11.90;;
17441;SDS011;8838;50.144;8.176;2024-01-30T08:03:44;38.60;;;23.77;;
17441;SDS011;8838;50.144;8.176;2024-01-30T08:06:12;21.30;;;13.27;;
17441;SDS011;8838;50.144;8.176;2024-01-30T08:08:39;20.33;;;12.13;;
17441;SDS011;8838;50.144;8.176;2024-01-30T08:11:06;18.60;;;12.23;;
17441;SDS011;8838;50.144;8.176;2024-01-30T08:13:33;20.03;;;12.70;;
17441;SDS011;8838;50.144;8.176;2024-01-30T08:16:00;19.07;;;12.07;;
17441;SDS011;8838;50.144;8.176;2024-01-30T08:18:27;17.27;;;11.50;;
17441;SDS011;8838;50.144;8.176;2024-01-30T08:20:54;17.77;;;10.60;;
17441;SDS011;8838;50.144;8.176;2024-01-30T08:23:23;19.13;;;11.17;;
17441;SDS011;8838;50.144;8.176;2024-01-30T08:25:49;14.93;;;10.30;;
17441;SDS011;8838;50.144;8.176;2024-01-30T08:28:16;14.83;;;9.73;;
17441;SDS011;8838;50.144;8.176;2024-01-30T08:30:43;15.93;;;9.03;;
17441;SDS011;8838;50.144;8.176;2024-01-30T08:33:10;16.30;;;8.43;;
17441;SDS011;8838;50.144;8.176;2024-01-30T08:35:37;10.50;;;8.00;;
17441;SDS011;8838;50.144;8.176;2024-01-30T08:38:04;15.20;;;8.70;;
17441;SDS011;8838;50.144;8.176;2024-01-30T08:40:33;13.97;;;8.47;;
17441;SDS011;8838;50.144;8.176;2024-01-30T08:43:00;13.87;;;8.97;;
17441;SDS011;8838;50.144;8.176;2024-01-30T08:45:27;12.60;;;8.80;;
17441;SDS011;8838;50.144;8.176;2024-01-30T08:47:55;14.90;;;8.77;;
17441;SDS011;8838;50.144;8.176;2024-01-30T08:50:22;17.97;;;8.93;;
17441;SDS011;8838;50.144;8.176;2024-01-30T08:52:49;12.90;;;8.60;;
17441;SDS011;8838;50.144;8.176;2024-01-30T08:55:16;11.33;;;8.13;;
17441;SDS011;8838;50.144;8.176;2024-01-30T08:57:44;13.90;;;8.63;;
17441;SDS011;8838;50.144;8.176;2024-01-30T09:00:12;15.43;;;8.67;;
17441;SDS011;8838;50.144;8.176;2024-01-30T09:02:39;14.17;;;8.60;;
17441;SDS011;8838;50.144;8.176;2024-01-30T09:05:06;14.93;;;8.23;;
17441;SDS011;8838;50.144;8.176;2024-01-30T09:07:34;15.77;;;8.70;;
17441;SDS011;8838;50.144;8.176;2024-01-30T09:10:00;13.60;;;8.73;;
17441;SDS011;8838;50.144;8.176;2024-01-30T09:12:28;12.93;;;8.27;;
17441;SDS011;8838;50.144;8.176;2024-01-30T09:14:56;15.00;;;8.37;;
17441;SDS011;8838;50.144;8.176;2024-01-30T09:17:24;13.07;;;8.63;;
17441;SDS011;8838;50.144;8.176;2024-01-30T09:19:51;14.13;;;8.60;;
17441;SDS011;8838;50.144;8.176;2024-01-30T09:22:18;14.77;;;8.80;;
17441;SDS011;8838;50.144;8.176;2024-01-30T09:24:45;14.80;;;8.57;;
17441;SDS011;8838;50.144;8.176;2024-01-30T09:27:12;12.27;;;8.47;;
17441;SDS011;8838;50.144;8.176;2024-01-30T09:29:38;14.97;;;8.10;;
17441;SDS011;8838;50.144;8.176;2024-01-30T09:32:07;14.27;;;8.00;;
17441;SDS011;8838;50.144;8.176;2024-01-30T09:34:35;15.07;;;8.07;;
17441;SDS011;8838;50.144;8.176;2024-01-30T09:37:02;13.23;;;8.13;;
17441;SDS011;8838;50.144;8.176;2024-01-30T09:39:29;15.53;;;8.40;;
17441;SDS011;8838;50.144;8.176;2024-01-30T09:42:00;13.00;;;8.17;;
17441;SDS011;8838;50.144;8.176;2024-01-30T09:44:32;11.40;;;7.97;;
17441;SDS011;8838;50.144;8.176;2024-01-30T09:47:01;14.80;;;8.50;;
17441;SDS011;8838;50.144;8.176;2024-01-30T09:49:33;13.67;;;8.00;;
17441;SDS011;8838;50.144;8.176;2024-01-30T09:52:01;10.37;;;7.33;;
17441;SDS011;8838;50.144;8.176;2024-01-30T09:54:29;13.00;;;8.27;;
17441;SDS011;8838;50.144;8.176;2024-01-30T09:56:57;12.70;;;7.90;;
17441;SDS011;8838;50.144;8.176;2024-01-30T09:59:24;11.83;;;8.10;;
17441;SDS011;8838;50.144;8.176;2024-01-30T10:01:51;11.87;;;8.30;;
17441;SDS011;8838;50.144;8.176;2024-01-30T10:04:18;13.20;;;7.90;;
17441;SDS011;8838;50.144;8.176;2024-01-30T10:06:46;14.80;;;8.03;;
17441;SDS011;8838;50.144;8.176;2024-01-30T10:09:14;14.37;;;8.20;;
17441;SDS011;8838;50.144;8.176;2024-01-30T10:11:41;16.67;;;8.73;;
17441;SDS011;8838;50.144;8.176;2024-01-30T10:14:08;15.13;;;8.10;;
17441;SDS011;8838;50.144;8.176;2024-01-30T10:16:36;14.13;;;7.97;;
17441;SDS011;8838;50.144;8.176;2024-01-30T10:19:03;11.97;;;7.97;;
17441;SDS011;8838;50.144;8.176;2024-01-30T10:21:30;12.83;;;8.07;;
17441;SDS011;8838;50.144;8.176;2024-01-30T10:23:58;13.93;;;7.90;;
17441;SDS011;8838;50.144;8.176;2024-01-30T10:26:25;11.10;;;7.27;;
17441;SDS011;8838;50.144;8.176;2024-01-30T10:28:54;13.40;;;8.00;;
17441;SDS011;8838;50.144;8.176;2024-01-30T10:31:21;16.10;;;9.53;;
17441;SDS011;8838;50.144;8.176;2024-01-30T10:33:49;11.20;;;7.30;;
17441;SDS011;8838;50.144;8.176;2024-01-30T10:36:16;12.70;;;7.63;;
17441;SDS011;8838;50.144;8.176;2024-01-30T10:38:44;14.83;;;8.47;;
17441;SDS011;8838;50.144;8.176;2024-01-30T10:41:14;9.87;;;7.10;;
17441;SDS011;8838;50.144;8.176;2024-01-30T10:43:47;13.70;;;7.53;;
17441;SDS011;8838;50.144;8.176;2024-01-30T10:46:25;11.43;;;6.83;;
17441;SDS011;8838;50.144;8.176;2024-01-30T10:48:58;13.10;;;7.03;;
17441;SDS011;8838;50.144;8.176;2024-01-30T10:51:27;13.13;;;7.10;;
17441;SDS011;8838;50.144;8.176;2024-01-30T10:53:55;11.47;;;7.27;;
17441;SDS011;8838;50.144;8.176;2024-01-30T10:56:24;11.80;;;7.03;;
17441;SDS011;8838;50.144;8.176;2024-01-30T10:58:52;10.73;;;6.93;;
17441;SDS011;8838;50.144;8.176;2024-01-30T11:01:20;11.23;;;6.93;;
17441;SDS011;8838;50.144;8.176;2024-01-30T11:03:48;11.27;;;7.13;;
17441;SDS011;8838;50.144;8.176;2024-01-30T11:06:15;11.13;;;6.57;;
17441;SDS011;8838;50.144;8.176;2024-01-30T11:08:44;10.10;;;6.70;;
17441;SDS011;8838;50.144;8.176;2024-01-30T11:11:11;10.93;;;7.17;;
17441;SDS011;8838;50.144;8.176;2024-01-30T11:13:40;10.73;;;6.47;;
17441;SDS011;8838;50.144;8.176;2024-01-30T11:16:08;13.50;;;6.60;;
17441;SDS011;8838;50.144;8.176;2024-01-30T11:18:38;10.47;;;6.50;;
17441;SDS011;8838;50.144;8.176;2024-01-30T11:21:05;11.30;;;7.30;;
17441;SDS011;8838;50.144;8.176;2024-01-30T11:23:33;9.77;;;6.87;;
17441;SDS011;8838;50.144;8.176;2024-01-30T11:26:01;11.90;;;7.03;;
17441;SDS011;8838;50.144;8.176;2024-01-30T11:28:31;12.60;;;7.20;;
17441;SDS011;8838;50.144;8.176;2024-01-30T11:31:04;11.27;;;6.97;;
17441;SDS011;8838;50.144;8.176;2024-01-30T11:33:32;11.77;;;6.47;;
17441;SDS011;8838;50.144;8.176;2024-01-30T11:35:59;10.00;;;6.57;;
17441;SDS011;8838;50.144;8.176;2024-01-30T11:38:27;12.97;;;6.57;;
17441;SDS011;8838;50.144;8.176;2024-01-30T11:40:54;11.43;;;7.00;;
17441;SDS011;8838;50.144;8.176;2024-01-30T11:43:22;10.83;;;7.00;;
17441;SDS011;8838;50.144;8.176;2024-01-30T11:45:50;11.40;;;6.40;;
17441;SDS011;8838;50.144;8.176;2024-01-30T11:48:18;11.37;;;6.67;;
17441;SDS011;8838;50.144;8.176;2024-01-30T11:50:45;15.70;;;6.57;;
17441;SDS011;8838;50.144;8.176;2024-01-30T11:53:12;10.97;;;6.77;;
17441;SDS011;8838;50.144;8.176;2024-01-30T11:55:40;9.67;;;5.97;;
17441;SDS011;8838;50.144;8.176;2024-01-30T11:58:06;13.07;;;6.63;;
17441;SDS011;8838;50.144;8.176;2024-01-30T12:00:33;12.27;;;6.83;;
17441;SDS011;8838;50.144;8.176;2024-01-30T12:03:00;10.67;;;6.97;;
17441;SDS011;8838;50.144;8.176;2024-01-30T12:05:29;10.13;;;6.23;;
17441;SDS011;8838;50.144;8.176;2024-01-30T12:07:56;11.13;;;6.30;;
17441;SDS011;8838;50.144;8.176;2024-01-30T12:10:24;11.30;;;6.40;;
17441;SDS011;8838;50.144;8.176;2024-01-30T12:12:52;10.50;;;5.97;;
17441;SDS011;8838;50.144;8.176;2024-01-30T12:15:21;13.07;;;6.50;;
17441;SDS011;8838;50.144;8.176;2024-01-30T12:17:48;13.50;;;8.20;;
17441;SDS011;8838;50.144;8.176;2024-01-30T12:20:17;11.17;;;6.40;;
17441;SDS011;8838;50.144;8.176;2024-01-30T12:22:48;11.73;;;6.40;;
17441;SDS011;8838;50.144;8.176;2024-01-30T12:25:16;10.47;;;6.50;;
17441;SDS011;8838;50.144;8.176;2024-01-30T12:27:45;10.27;;;6.90;;
17441;SDS011;8838;50.144;8.176;2024-01-30T12:30:15;11.03;;;6.43;;
17441;SDS011;8838;50.144;8.176;2024-01-30T12:32:42;10.97;;;6.60;;
17441;SDS011;8838;50.144;8.176;2024-01-30T12:35:10;10.33;;;6.07;;
17441;SDS011;8838;50.144;8.176;2024-01-30T12:37:38;8.27;;;5.80;;
17441;SDS011;8838;50.144;8.176;2024-01-30T12:40:08;11.27;;;6.30;;
17441;SDS011;8838;50.144;8.176;2024-01-30T12:42:35;9.60;;;6.10;;
17441;SDS011;8838;50.144;8.176;2024-01-30T12:45:03;10.70;;;5.73;;
17441;SDS011;8838;50.144;8.176;2024-01-30T12:47:31;11.97;;;6.23;;
17441;SDS011;8838;50.144;8.176;2024-01-30T12:49:59;10.20;;;6.00;;
17441;SDS011;8838;50.144;8.176;2024-01-30T12:52:26;9.33;;;6.03;;
17441;SDS011;8838;50.144;8.176;2024-01-30T12:54:53;11.50;;;6.87;;
17441;SDS011;8838;50.144;8.176;2024-01-30T12:57:22;10.53;;;6.83;;
17441;SDS011;8838;50.144;8.176;2024-01-30T12:59:49;12.60;;;7.20;;
17441;SDS011;8838;50.144;8.176;2024-01-30T13:02:16;13.90;;;7.53;;
17441;SDS011;8838;50.144;8.176;2024-01-30T13:04:44;11.93;;;8.13;;
17441;SDS011;8838;50.144;8.176;2024-01-30T13:07:11;11.83;;;7.73;;
17441;SDS011;8838;50.144;8.176;2024-01-30T13:09:38;13.13;;;8.13;;
17441;SDS011;8838;50.144;8.176;2024-01-30T13:12:06;12.00;;;7.87;;
17441;SDS011;8838;50.144;8.176;2024-01-30T13:14:34;13.00;;;7.83;;
17441;SDS011;8838;50.144;8.176;2024-01-30T13:17:01;11.60;;;7.77;;
17441;SDS011;8838;50.144;8.176;2024-01-30T13:19:29;14.13;;;8.00;;
17441;SDS011;8838;50.144;8.176;2024-01-30T13:21:55;12.17;;;7.70;;
17441;SDS011;8838;50.144;8.176;2024-01-30T13:24:23;12.03;;;7.70;;
17441;SDS011;8838;50.144;8.176;2024-01-30T13:26:51;26.33;;;16.17;;
17441;SDS011;8838;50.144;8.176;2024-01-30T13:29:19;13.47;;;8.83;;
17441;SDS011;8838;50.144;8.176;2024-01-30T13:31:49;12.60;;;7.70;;
17441;SDS011;8838;50.144;8.176;2024-01-30T13:34:16;12.70;;;8.23;;
17441;SDS011;8838;50.144;8.176;2024-01-30T13:36:42;11.77;;;7.47;;
17441;SDS011;8838;50.144;8.176;2024-01-30T13:39:10;13.37;;;8.00;;
17441;SDS011;8838;50.144;8.176;2024-01-30T13:41:37;14.03;;;8.17;;
17441;SDS011;8838;50.144;8.176;2024-01-30T13:44:04;12.60;;;7.90;;
17441;SDS011;8838;50.144;8.176;2024-01-30T13:46:31;12.77;;;7.70;;
17441;SDS011;8838;50.144;8.176;2024-01-30T13:48:59;14.67;;;8.73;;
17441;SDS011;8838;50.144;8.176;2024-01-30T13:51:26;12.23;;;8.20;;
17441;SDS011;8838;50.144;8.176;2024-01-30T13:53:53;12.43;;;7.63;;
17441;SDS011;8838;50.144;8.176;2024-01-30T13:56:20;13.97;;;8.63;;
17441;SDS011;8838;50.144;8.176;2024-01-30T13:58:47;12.40;;;7.87;;
17441;SDS011;8838;50.144;8.176;2024-01-30T14:01:15;12.83;;;8.50;;
17441;SDS011;8838;50.144;8.176;2024-01-30T14:03:42;14.70;;;7.67;;
17441;SDS011;8838;50.144;8.176;2024-01-30T14:06:10;12.27;;;7.93;;
17441;SDS011;8838;50.144;8.176;2024-01-30T14:08:37;15.67;;;8.43;;
17441;SDS011;8838;50.144;8.176;2024-01-30T14:11:04;13.27;;;7.77;;
17441;SDS011;8838;50.144;8.176;2024-01-30T14:13:31;12.20;;;8.07;;
17441;SDS011;8838;50.144;8.176;2024-01-30T14:15:58;12.23;;;8.10;;
17441;SDS011;8838;50.144;8.176;2024-01-30T14:18:25;13.43;;;8.17;;
17441;SDS011;8838;50.144;8.176;2024-01-30T14:20:52;13.47;;;7.87;;
17441;SDS011;8838;50.144;8.176;2024-01-30T14:23:22;14.27;;;8.17;;
17441;SDS011;8838;50.144;8.176;2024-01-30T14:25:49;17.20;;;8.40;;
17441;SDS011;8838;50.144;8.176;2024-01-30T14:28:17;13.53;;;7.90;;
17441;SDS011;8838;50.144;8.176;2024-01-30T14:30:44;14.57;;;7.93;;
17441;SDS011;8838;50.144;8.176;2024-01-30T14:33:11;12.83;;;8.47;;
17441;SDS011;8838;50.144;8.176;2024-01-30T14:35:41;12.37;;;8.27;;
17441;SDS011;8838;50.144;8.176;2024-01-30T14:38:08;13.07;;;8.03;;
17441;SDS011;8838;50.144;8.176;2024-01-30T14:40:37;12.80;;;7.60;;
17441;SDS011;8838;50.144;8.176;2024-01-30T14:43:04;13.40;;;7.50;;